createdAt,value
2023-10-24T00:00:27.414Z,4.82
2023-10-24T00:02:54.695Z,4.80
2023-10-24T00:05:21.949Z,4.90
2023-10-24T00:07:50.949Z,5.70
2023-10-24T00:10:18.476Z,5.18
2023-10-24T00:12:45.743Z,5.50
2023-10-24T00:15:13.123Z,5.78
2023-10-24T00:17:40.336Z,5.68
2023-10-24T00:20:08.230Z,5.35
2023-10-24T00:22:35.461Z,5.88
2023-10-24T00:25:02.733Z,6.22
2023-10-24T00:27:30.064Z,6.30
2023-10-24T00:29:57.281Z,6.40
2023-10-24T00:32:25.059Z,6.53
2023-10-24T00:34:52.327Z,6.90
2023-10-24T00:37:19.585Z,7.38
2023-10-24T00:39:46.895Z,7.30
2023-10-24T00:42:14.222Z,7.20
2023-10-24T00:44:42.880Z,7.78
2023-10-24T00:47:11.597Z,8.20
2023-10-24T00:49:39.299Z,8.65
2023-10-24T00:52:06.810Z,8.70
2023-10-24T00:54:34.968Z,8.77
2023-10-24T00:57:02.665Z,9.55
2023-10-24T00:59:30.378Z,9.05
2023-10-24T01:01:57.938Z,9.90
2023-10-24T01:04:25.393Z,10.35
2023-10-24T01:06:52.653Z,9.90
2023-10-24T01:09:20.974Z,10.40
2023-10-24T01:11:50.250Z,10.25
2023-10-24T01:14:17.631Z,10.68
2023-10-24T01:16:45.749Z,10.65
2023-10-24T01:19:13.744Z,10.55
2023-10-24T01:21:45.130Z,10.88
2023-10-24T01:24:14.116Z,10.88
2023-10-24T01:26:42.585Z,10.93
2023-10-24T01:29:10.282Z,10.90
2023-10-24T01:31:37.930Z,10.70
2023-10-24T01:34:05.459Z,11.50
2023-10-24T01:36:32.738Z,10.50
2023-10-24T01:38:59.958Z,11.00
2023-10-24T01:41:27.273Z,11.68
2023-10-24T01:43:55.166Z,11.55
2023-10-24T01:46:22.472Z,11.70
2023-10-24T01:48:49.744Z,11.65
2023-10-24T01:51:17.000Z,12.20
2023-10-24T01:53:44.201Z,11.95
2023-10-24T01:56:14.797Z,12.20
2023-10-24T01:58:42.171Z,11.18
2023-10-24T02:01:09.540Z,10.68
2023-10-24T02:03:37.123Z,11.18
2023-10-24T02:06:04.940Z,10.60
2023-10-24T02:08:32.537Z,10.98
2023-10-24T02:10:59.679Z,10.55
2023-10-24T02:13:27.159Z,10.60
2023-10-24T02:15:55.740Z,11.13
2023-10-24T02:18:23.057Z,10.50
2023-10-24T02:20:50.779Z,10.80
2023-10-24T02:23:18.191Z,10.40
2023-10-24T02:25:45.449Z,9.50
2023-10-24T02:28:13.079Z,10.00
2023-10-24T02:30:40.442Z,10.30
2023-10-24T02:33:07.783Z,10.10
2023-10-24T02:35:35.010Z,10.15
2023-10-24T02:38:02.275Z,9.68
2023-10-24T02:40:29.716Z,10.10
2023-10-24T02:42:57.086Z,8.85
2023-10-24T02:45:24.940Z,8.98
2023-10-24T02:47:52.613Z,9.05
2023-10-24T02:50:20.205Z,8.80
2023-10-24T02:52:48.571Z,8.10
2023-10-24T02:55:16.024Z,8.52
2023-10-24T02:57:43.348Z,8.00
2023-10-24T03:00:11.037Z,7.70
2023-10-24T03:02:38.422Z,7.40
2023-10-24T03:05:05.836Z,7.70
2023-10-24T03:07:33.086Z,7.78
2023-10-24T03:10:00.418Z,8.07
2023-10-24T03:12:27.660Z,7.43
2023-10-24T03:14:56.976Z,6.78
2023-10-24T03:17:24.436Z,6.82
2023-10-24T03:19:51.958Z,6.80
2023-10-24T03:22:21.453Z,6.65
2023-10-24T03:24:48.837Z,6.70
2023-10-24T03:27:16.118Z,7.20
2023-10-24T03:29:43.327Z,6.50
2023-10-24T03:32:11.549Z,6.65
2023-10-24T03:34:39.747Z,6.28
2023-10-24T03:37:07.128Z,6.60
2023-10-24T03:39:34.365Z,6.20
2023-10-24T03:42:01.892Z,5.80
2023-10-24T03:44:29.148Z,6.22
2023-10-24T03:46:56.592Z,5.78
2023-10-24T03:49:24.053Z,5.65
2023-10-24T03:51:51.268Z,5.15
2023-10-24T03:54:18.509Z,5.15
2023-10-24T03:56:45.740Z,5.50
2023-10-24T03:59:13.743Z,5.25
2023-10-24T04:01:42.156Z,5.63
2023-10-24T04:04:09.484Z,5.60
2023-10-24T04:06:36.685Z,5.25
2023-10-24T04:09:07.911Z,5.53
2023-10-24T04:11:35.249Z,5.80
2023-10-24T04:14:03.403Z,5.82
2023-10-24T04:16:32.085Z,6.10
2023-10-24T04:18:59.382Z,6.30
2023-10-24T04:21:26.657Z,6.13
2023-10-24T04:23:54.075Z,6.45
2023-10-24T04:26:21.340Z,6.70
2023-10-24T04:28:49.430Z,7.22
2023-10-24T04:31:16.926Z,7.20
2023-10-24T04:33:44.217Z,7.13
2023-10-24T04:36:15.701Z,7.65
2023-10-24T04:38:42.888Z,7.53
2023-10-24T04:41:10.190Z,8.00
2023-10-24T04:43:37.570Z,7.60
2023-10-24T04:46:04.815Z,8.27
2023-10-24T04:48:32.088Z,7.78
2023-10-24T04:50:59.339Z,8.18
2023-10-24T04:53:26.589Z,8.02
2023-10-24T04:55:53.875Z,7.93
2023-10-24T04:58:21.145Z,7.35
2023-10-24T05:00:48.442Z,8.25
2023-10-24T05:03:15.836Z,8.25
2023-10-24T05:05:43.155Z,7.90
2023-10-24T05:08:11.499Z,8.10
2023-10-24T05:10:39.025Z,7.55
2023-10-24T05:13:06.904Z,7.35
2023-10-24T05:15:34.232Z,7.30
2023-10-24T05:18:01.428Z,8.25
2023-10-24T05:20:28.664Z,7.90
2023-10-24T05:22:55.941Z,7.88
2023-10-24T05:25:23.365Z,8.35
2023-10-24T05:27:50.599Z,8.50
2023-10-24T05:30:17.834Z,8.70
2023-10-24T05:32:45.391Z,8.93
2023-10-24T05:35:12.722Z,9.27
2023-10-24T05:37:40.000Z,9.20
2023-10-24T05:40:08.225Z,8.90
2023-10-24T05:42:35.558Z,9.18
2023-10-24T05:45:02.789Z,8.23
2023-10-24T05:47:30.221Z,9.20
2023-10-24T05:49:57.483Z,9.15
2023-10-24T05:52:24.830Z,9.60
2023-10-24T05:54:52.172Z,9.15
2023-10-24T05:57:19.456Z,9.65
2023-10-24T05:59:46.649Z,10.25
2023-10-24T06:02:13.970Z,9.70
2023-10-24T06:04:41.704Z,9.05
2023-10-24T06:07:09.283Z,9.00
2023-10-24T06:09:36.631Z,9.77
2023-10-24T06:12:03.988Z,9.43
2023-10-24T06:14:31.216Z,9.25
2023-10-24T06:16:58.525Z,9.50
2023-10-24T06:19:25.920Z,8.80
2023-10-24T06:21:53.239Z,8.98
2023-10-24T06:24:20.573Z,8.57
2023-10-24T06:26:48.000Z,9.50
2023-10-24T06:29:15.409Z,8.45
2023-10-24T06:31:42.779Z,8.60
2023-10-24T06:34:10.101Z,8.02
2023-10-24T06:36:37.421Z,8.38
2023-10-24T06:39:05.134Z,7.45
2023-10-24T06:41:32.981Z,8.15
2023-10-24T06:44:00.358Z,8.68
2023-10-24T06:46:28.158Z,8.02
2023-10-24T06:48:55.524Z,8.00
2023-10-24T06:51:22.756Z,8.00
2023-10-24T06:53:49.989Z,7.45
2023-10-24T06:56:18.880Z,7.63
2023-10-24T06:58:48.189Z,7.75
2023-10-24T07:01:15.540Z,7.65
2023-10-24T07:03:42.867Z,7.85
2023-10-24T07:06:11.937Z,8.00
2023-10-24T07:08:39.738Z,7.53
2023-10-24T07:11:06.995Z,7.78
2023-10-24T07:13:38.211Z,7.95
2023-10-24T07:16:12.795Z,8.88
2023-10-24T07:18:40.044Z,8.05
2023-10-24T07:21:07.459Z,8.60
2023-10-24T07:23:35.266Z,8.32
2023-10-24T07:26:03.323Z,8.23
2023-10-24T07:28:31.053Z,8.18
2023-10-24T07:30:58.394Z,8.82
2023-10-24T07:33:25.642Z,8.32
2023-10-24T07:35:52.992Z,8.82
2023-10-24T07:38:20.655Z,8.38
2023-10-24T07:40:49.498Z,8.27
2023-10-24T07:43:16.817Z,7.93
2023-10-24T07:45:44.053Z,8.98
2023-10-24T07:48:13.732Z,9.02
2023-10-24T07:50:40.952Z,8.68
2023-10-24T07:53:08.224Z,9.48
2023-10-24T07:55:35.438Z,9.60
2023-10-24T07:58:02.660Z,9.48
2023-10-24T08:00:29.924Z,9.82
2023-10-24T08:02:59.203Z,10.23
2023-10-24T08:05:26.833Z,9.75
2023-10-24T08:07:54.092Z,9.68
2023-10-24T08:10:21.426Z,10.18
2023-10-24T08:12:48.783Z,10.50
2023-10-24T08:15:15.973Z,9.98
2023-10-24T08:17:43.344Z,9.85
2023-10-24T08:20:11.036Z,10.70
2023-10-24T08:22:38.371Z,10.55
2023-10-24T08:25:05.838Z,10.25
2023-10-24T08:27:33.026Z,10.45
2023-10-24T08:30:00.531Z,10.73
2023-10-24T08:32:28.506Z,10.00
2023-10-24T08:34:56.513Z,10.65
2023-10-24T08:37:27.124Z,10.50
2023-10-24T08:39:58.041Z,9.35
2023-10-24T08:42:27.140Z,10.70
2023-10-24T08:44:54.576Z,9.98
2023-10-24T08:47:22.300Z,9.77
2023-10-24T08:49:50.129Z,10.27
2023-10-24T08:52:30.048Z,10.93
2023-10-24T08:55:02.339Z,10.35
2023-10-24T08:57:33.380Z,10.15
2023-10-24T09:00:01.991Z,9.35
2023-10-24T09:02:29.647Z,9.32
2023-10-24T09:04:57.110Z,9.63
2023-10-24T09:07:24.449Z,9.40
2023-10-24T09:09:52.068Z,9.63
2023-10-24T09:12:19.380Z,9.30
2023-10-24T09:14:53.587Z,9.35
2023-10-24T09:17:22.737Z,9.20
2023-10-24T09:19:50.688Z,9.70
2023-10-24T09:22:19.187Z,8.35
2023-10-24T09:24:47.717Z,8.55
2023-10-24T09:27:18.558Z,8.10
2023-10-24T09:29:50.592Z,9.35
2023-10-24T09:32:19.139Z,8.15
2023-10-24T09:34:47.898Z,8.05
2023-10-24T09:37:15.893Z,8.40
2023-10-24T09:39:53.468Z,7.78
2023-10-24T09:42:26.058Z,8.35
2023-10-24T09:44:56.770Z,7.97
2023-10-24T09:47:24.635Z,7.53
2023-10-24T09:49:55.888Z,7.28
2023-10-24T09:52:25.916Z,7.57
2023-10-24T09:54:55.574Z,7.68
2023-10-24T09:57:23.945Z,6.78
2023-10-24T09:59:58.051Z,7.07
2023-10-24T10:02:26.034Z,6.90
2023-10-24T10:04:53.649Z,6.55
2023-10-24T10:07:24.534Z,6.47
2023-10-24T10:09:55.703Z,6.13
2023-10-24T10:12:23.119Z,6.03
2023-10-24T10:15:08.713Z,6.38
2023-10-24T10:20:39.383Z,5.75
2023-10-24T10:23:33.027Z,6.30
2023-10-24T10:26:03.669Z,6.20
2023-10-24T10:29:06.378Z,5.97
2023-10-24T10:32:40.036Z,6.88
2023-10-24T10:34:38.077Z,6.43
2023-10-24T10:37:05.909Z,6.50
2023-10-24T10:39:33.196Z,6.78
2023-10-24T10:42:00.465Z,6.70
2023-10-24T10:44:45.074Z,6.88
2023-10-24T10:47:14.374Z,6.70
2023-10-24T10:49:52.788Z,6.85
2023-10-24T10:52:30.079Z,6.88
2023-10-24T10:55:29.441Z,6.60
2023-10-24T10:58:11.327Z,6.72
2023-10-24T11:01:03.408Z,6.63
2023-10-24T11:03:47.864Z,6.20
2023-10-24T11:06:16.570Z,6.35
2023-10-24T11:08:45.767Z,6.13
2023-10-24T11:11:13.078Z,6.03
2023-10-24T11:13:44.163Z,6.60
2023-10-24T11:16:25.188Z,5.90
2023-10-24T11:18:54.951Z,5.75
2023-10-24T11:21:22.155Z,5.00
2023-10-24T11:23:49.340Z,5.45
2023-10-24T11:26:16.916Z,6.10
2023-10-24T11:28:45.395Z,5.85
2023-10-24T11:31:39.595Z,5.82
2023-10-24T11:34:06.940Z,5.72
2023-10-24T11:36:34.300Z,5.38
2023-10-24T11:39:05.229Z,5.85
2023-10-24T11:41:32.482Z,6.15
2023-10-24T11:44:00.167Z,5.85
2023-10-24T11:46:27.528Z,5.95
2023-10-24T11:48:54.856Z,6.25
2023-10-24T11:51:22.201Z,6.00
2023-10-24T11:53:50.450Z,6.40
2023-10-24T11:56:17.712Z,5.72
2023-10-24T11:58:45.044Z,6.18
2023-10-24T12:01:12.327Z,6.05
2023-10-24T12:03:46.971Z,5.88
2023-10-24T12:06:17.055Z,6.47
2023-10-24T12:08:44.708Z,6.13
2023-10-24T12:11:12.316Z,6.10
2023-10-24T12:13:40.440Z,6.05
2023-10-24T12:16:08.924Z,5.90
2023-10-24T12:18:39.229Z,6.13
2023-10-24T12:21:08.905Z,5.35
2023-10-24T12:23:37.568Z,5.38
2023-10-24T12:26:06.161Z,5.63
2023-10-24T12:28:37.857Z,5.93
2023-10-24T12:31:06.271Z,5.50
2023-10-24T12:33:33.930Z,5.50
2023-10-24T12:36:02.420Z,5.10
2023-10-24T12:38:30.569Z,4.85
2023-10-24T12:40:58.027Z,4.90
2023-10-24T12:43:25.213Z,5.03
2023-10-24T12:45:52.913Z,5.03
2023-10-24T12:48:20.834Z,5.30
2023-10-24T12:50:48.691Z,4.53
2023-10-24T12:53:15.994Z,4.60
2023-10-24T12:55:44.367Z,4.63
2023-10-24T12:58:11.881Z,4.38
2023-10-24T13:00:39.148Z,4.47
2023-10-24T13:03:16.310Z,4.07
2023-10-24T13:05:46.437Z,3.97
2023-10-24T13:08:13.742Z,4.10
2023-10-24T13:10:41.466Z,4.18
2023-10-24T13:13:08.890Z,4.13
2023-10-24T13:15:36.166Z,3.53
2023-10-24T13:18:03.519Z,3.20
2023-10-24T13:20:30.855Z,3.55
2023-10-24T13:22:58.233Z,3.40
2023-10-24T13:25:25.521Z,3.67
2023-10-24T13:27:52.712Z,3.80
2023-10-24T13:30:33.564Z,3.70
2023-10-24T13:33:07.455Z,3.80
2023-10-24T13:38:04.836Z,3.92
2023-10-24T13:40:32.134Z,3.95
2023-10-24T13:42:59.382Z,3.95
2023-10-24T13:47:55.581Z,3.60
2023-10-24T13:50:22.783Z,3.83
2023-10-24T13:52:51.520Z,3.35
2023-10-24T13:55:18.953Z,3.80
2023-10-24T13:57:47.977Z,3.78
2023-10-24T14:00:15.625Z,3.28
2023-10-24T14:02:43.416Z,3.28
2023-10-24T14:05:11.509Z,3.50
2023-10-24T14:07:38.974Z,3.03
2023-10-24T14:10:07.085Z,3.38
2023-10-24T14:12:34.855Z,3.13
2023-10-24T14:15:02.261Z,3.13
2023-10-24T14:17:29.551Z,3.58
2023-10-24T14:19:56.786Z,3.20
2023-10-24T14:22:24.648Z,3.00
2023-10-24T14:24:53.695Z,3.55
2023-10-24T14:27:21.047Z,3.03
2023-10-24T14:29:48.784Z,2.95
2023-10-24T14:32:17.330Z,3.35
2023-10-24T14:34:44.688Z,3.65
2023-10-24T14:37:12.593Z,2.85
2023-10-24T14:39:40.091Z,3.03
2023-10-24T14:42:07.826Z,2.70
2023-10-24T14:44:35.661Z,2.60
2023-10-24T14:47:05.047Z,2.90
2023-10-24T14:49:32.251Z,3.38
2023-10-24T14:52:00.217Z,3.60
2023-10-24T14:54:27.493Z,3.17
2023-10-24T14:56:54.899Z,3.13
2023-10-24T14:59:22.406Z,3.22
2023-10-24T15:01:49.810Z,3.60
2023-10-24T15:04:20.465Z,2.85
2023-10-24T15:06:47.665Z,2.90
2023-10-24T15:09:20.405Z,3.08
2023-10-24T15:11:51.234Z,3.03
2023-10-24T15:14:18.989Z,3.13
2023-10-24T15:16:46.312Z,3.10
2023-10-24T15:19:13.537Z,3.03
2023-10-24T15:21:40.951Z,3.10
2023-10-24T15:24:08.220Z,3.45
2023-10-24T15:26:36.678Z,3.40
2023-10-24T15:29:06.113Z,3.45
2023-10-24T15:31:36.749Z,3.40
2023-10-24T15:34:04.066Z,3.55
2023-10-24T15:36:33.214Z,3.67
2023-10-24T15:39:01.638Z,3.67
2023-10-24T15:41:28.931Z,3.78
2023-10-24T15:43:56.266Z,3.90
2023-10-24T15:46:23.550Z,4.22
2023-10-24T15:48:52.605Z,4.07
2023-10-24T15:51:20.970Z,4.40
2023-10-24T15:53:49.443Z,4.60
2023-10-24T15:56:17.765Z,4.45
2023-10-24T15:58:44.972Z,4.78
2023-10-24T16:01:13.241Z,5.00
2023-10-24T16:03:41.016Z,5.03
2023-10-24T16:06:08.731Z,4.10
2023-10-24T16:08:37.006Z,4.55
2023-10-24T16:11:04.537Z,3.50
2023-10-24T16:13:32.103Z,2.80
2023-10-24T16:16:01.328Z,2.08
2023-10-24T16:18:28.627Z,1.65
2023-10-24T16:20:59.988Z,1.92
2023-10-24T16:23:28.213Z,2.00
2023-10-24T16:25:59.404Z,1.75
2023-10-24T16:28:27.537Z,1.42
2023-10-24T16:30:54.753Z,1.70
2023-10-24T16:33:22.233Z,1.60
2023-10-24T16:35:50.115Z,1.70
2023-10-24T16:38:17.675Z,2.20
2023-10-24T16:40:45.183Z,3.20
2023-10-24T16:43:12.467Z,2.90
2023-10-24T16:45:39.790Z,2.60
2023-10-24T16:48:07.471Z,2.55
2023-10-24T16:50:37.941Z,2.38
2023-10-24T16:53:06.184Z,2.00
2023-10-24T16:55:36.953Z,2.20
2023-10-24T16:58:04.343Z,2.40
2023-10-24T17:00:31.567Z,2.30
2023-10-24T17:02:59.057Z,3.05
2023-10-24T17:05:26.595Z,3.38
2023-10-24T17:07:53.918Z,3.45
2023-10-24T17:10:21.238Z,3.80
2023-10-24T17:12:48.438Z,4.10
2023-10-24T17:15:15.706Z,3.78
2023-10-24T17:17:43.126Z,3.90
2023-10-24T17:20:10.754Z,3.40
2023-10-24T17:22:38.292Z,2.83
2023-10-24T17:25:06.259Z,3.10
2023-10-24T17:27:33.695Z,3.33
2023-10-24T17:30:02.447Z,2.80
2023-10-24T17:32:31.943Z,3.40
2023-10-24T17:34:59.333Z,3.05
2023-10-24T17:37:26.577Z,3.45
2023-10-24T17:39:54.035Z,3.40
2023-10-24T17:42:22.410Z,4.18
2023-10-24T17:44:49.597Z,4.20
2023-10-24T17:47:17.026Z,4.18
2023-10-24T17:49:45.932Z,4.43
2023-10-24T17:52:13.284Z,4.13
2023-10-24T17:54:40.676Z,4.70
2023-10-24T17:57:08.063Z,4.32
2023-10-24T17:59:35.338Z,4.40
2023-10-24T18:02:02.585Z,4.38
2023-10-24T18:04:30.009Z,3.95
2023-10-24T18:07:01.441Z,4.38
2023-10-24T18:09:33.306Z,4.32
2023-10-24T18:12:02.132Z,4.80
2023-10-24T18:14:29.499Z,4.50
2023-10-24T18:16:56.770Z,4.63
2023-10-24T18:19:25.142Z,4.40
2023-10-24T18:21:52.452Z,4.50
2023-10-24T18:24:19.615Z,4.65
2023-10-24T18:26:47.657Z,4.72
2023-10-24T18:29:15.051Z,4.43
2023-10-24T18:31:42.487Z,4.78
2023-10-24T18:34:09.883Z,4.40
2023-10-24T18:36:37.019Z,4.45
2023-10-24T18:39:05.901Z,4.70
2023-10-24T18:41:33.205Z,5.13
2023-10-24T18:44:00.492Z,4.55
2023-10-24T18:46:27.750Z,5.05
2023-10-24T18:48:55.047Z,4.63
2023-10-24T18:51:22.322Z,4.75
2023-10-24T18:53:49.733Z,4.72
2023-10-24T18:56:23.101Z,4.90
2023-10-24T18:58:50.458Z,4.15
2023-10-24T19:01:20.700Z,4.32
2023-10-24T19:03:47.985Z,4.10
2023-10-24T19:06:15.299Z,4.63
2023-10-24T19:08:42.560Z,4.40
2023-10-24T19:11:09.915Z,4.15
2023-10-24T19:13:37.826Z,4.97
2023-10-24T19:16:05.946Z,4.65
2023-10-24T19:18:33.497Z,4.60
2023-10-24T19:21:00.958Z,4.35
2023-10-24T19:23:28.452Z,6.15
2023-10-24T19:25:56.070Z,4.93
2023-10-24T19:28:25.477Z,4.68
2023-10-24T19:30:53.016Z,4.15
2023-10-24T19:33:20.499Z,4.70
2023-10-24T19:35:49.728Z,4.68
2023-10-24T19:38:18.472Z,3.70
2023-10-24T19:40:45.770Z,3.90
2023-10-24T19:43:13.177Z,3.60
2023-10-24T19:45:40.756Z,3.83
2023-10-24T19:48:18.065Z,3.22
2023-10-24T19:50:45.987Z,3.95
2023-10-24T19:53:13.432Z,3.45
2023-10-24T19:55:44.334Z,4.35
2023-10-24T19:58:11.879Z,3.97
2023-10-24T20:00:39.403Z,4.00
2023-10-24T20:03:08.029Z,4.13
2023-10-24T20:05:35.749Z,5.60
2023-10-24T20:08:03.893Z,6.15
2023-10-24T20:12:31.625Z,4.43
2023-10-24T20:13:20.719Z,3.47
2023-10-24T20:15:48.418Z,4.00
2023-10-24T20:18:15.805Z,4.30
2023-10-24T20:20:43.252Z,3.90
2023-10-24T20:23:10.641Z,3.88
2023-10-24T20:25:38.213Z,3.50
2023-10-24T20:28:05.817Z,4.35
2023-10-24T20:30:35.376Z,4.15
2023-10-24T20:33:02.768Z,3.85
2023-10-24T20:35:30.177Z,3.65
2023-10-24T20:37:58.114Z,3.45
2023-10-24T20:40:25.564Z,3.70
2023-10-24T20:42:53.414Z,4.82
2023-10-24T20:45:21.015Z,3.83
2023-10-24T20:47:48.339Z,4.35
2023-10-24T20:50:15.876Z,3.85
2023-10-24T20:52:43.217Z,4.15
2023-10-24T20:55:10.758Z,4.47
2023-10-24T20:57:38.167Z,3.80
2023-10-24T21:00:06.434Z,3.95
2023-10-24T21:02:33.732Z,3.80
2023-10-24T21:05:01.389Z,4.05
2023-10-24T21:07:28.894Z,4.00
2023-10-24T21:09:56.280Z,3.50
2023-10-24T21:12:23.635Z,4.20
2023-10-24T21:14:51.218Z,4.05
2023-10-24T21:17:18.460Z,4.32
2023-10-24T21:19:46.238Z,3.88
2023-10-24T21:22:13.617Z,4.28
2023-10-24T21:24:40.922Z,3.78
2023-10-24T21:27:08.243Z,4.03
2023-10-24T21:29:35.538Z,4.10
2023-10-24T21:32:02.831Z,3.75
2023-10-24T21:34:30.292Z,3.70
2023-10-24T21:36:58.745Z,4.28
2023-10-24T21:39:26.094Z,3.58
2023-10-24T21:41:56.526Z,3.80
2023-10-24T21:44:23.795Z,4.35
2023-10-24T21:46:51.076Z,4.03
2023-10-24T21:49:18.379Z,3.88
2023-10-24T21:51:45.855Z,4.10
2023-10-24T21:54:13.109Z,3.63
2023-10-24T21:56:42.059Z,3.80
2023-10-24T21:59:09.835Z,3.50
2023-10-24T22:01:37.162Z,3.50
2023-10-24T22:04:04.733Z,4.10
2023-10-24T22:06:32.135Z,4.32
2023-10-24T22:08:59.487Z,3.67
2023-10-24T22:11:26.689Z,4.30
2023-10-24T22:13:53.965Z,3.72
2023-10-24T22:16:21.309Z,4.22
2023-10-24T22:18:48.730Z,4.00
2023-10-24T22:21:17.097Z,4.30
2023-10-24T22:23:44.438Z,3.90
2023-10-24T22:26:11.720Z,4.65
2023-10-24T22:28:39.061Z,4.07
2023-10-24T22:31:06.416Z,4.00
2023-10-24T22:33:33.727Z,4.57
2023-10-24T22:36:00.957Z,4.38
2023-10-24T22:38:28.236Z,4.32
2023-10-24T22:40:59.974Z,4.40
2023-10-24T22:43:27.190Z,4.43
2023-10-24T22:45:54.477Z,4.30
2023-10-24T22:48:21.745Z,4.38
2023-10-24T22:50:48.951Z,4.50
2023-10-24T22:53:16.200Z,4.43
2023-10-24T22:55:43.400Z,4.18
2023-10-24T22:58:10.651Z,4.30
2023-10-24T23:00:38.042Z,4.00
2023-10-24T23:03:05.433Z,4.38
2023-10-24T23:05:32.914Z,4.15
2023-10-24T23:08:00.223Z,4.32
2023-10-24T23:10:27.449Z,4.40
2023-10-24T23:12:54.801Z,4.22
2023-10-24T23:15:22.050Z,4.50
2023-10-24T23:17:49.349Z,4.25
2023-10-24T23:20:16.646Z,4.22
2023-10-24T23:22:43.959Z,4.72
2023-10-24T23:25:11.246Z,4.97
2023-10-24T23:27:38.700Z,4.47
2023-10-24T23:30:07.768Z,4.70
2023-10-24T23:32:35.037Z,4.57
2023-10-24T23:35:02.508Z,4.45
2023-10-24T23:37:29.740Z,4.75
2023-10-24T23:39:57.030Z,5.53
2023-10-24T23:42:24.306Z,5.53
2023-10-24T23:44:51.572Z,4.97
2023-10-24T23:47:18.816Z,5.18
2023-10-24T23:49:46.047Z,5.53
2023-10-24T23:52:13.321Z,5.97
2023-10-24T23:54:40.616Z,5.05
2023-10-24T23:57:08.092Z,5.70
2023-10-24T23:59:35.454Z,6.05
